sensor_id;sensor_type;location;lat;lon;timestamp;pressure;altitude;pressure_sealevel;temperature;humidity
21300;BME280;10809;49.476;11.016;2023-05-25T00:00:57;98784.63;;;13.22;40.58
21300;BME280;10809;49.476;11.016;2023-05-25T00:03:28;98783.00;;;13.19;40.68
21300;BME280;10809;49.476;11.016;2023-05-25T00:06:00;98779.75;;;13.14;40.60
21300;BME280;10809;49.476;11.016;2023-05-25T00:08:31;98778.97;;;13.12;40.65
21300;BME280;10809;49.476;11.016;2023-05-25T00:11:01;98763.38;;;13.06;40.84
21300;BME280;10809;49.476;11.016;2023-05-25T00:13:32;98771.53;;;13.03;40.80
21300;BME280;10809;49.476;11.016;2023-05-25T00:16:08;98770.97;;;12.98;40.63
21300;BME280;10809;49.476;11.016;2023-05-25T00:18:39;98758.69;;;12.95;40.80
21300;BME280;10809;49.476;11.016;2023-05-25T00:21:09;98763.34;;;12.92;40.93
21300;BME280;10809;49.476;11.016;2023-05-25T00:23:50;98758.19;;;12.89;40.85
21300;BME280;10809;49.476;11.016;2023-05-25T00:26:20;98761.00;;;12.86;40.91
21300;BME280;10809;49.476;11.016;2023-05-25T00:28:51;98767.38;;;12.83;41.04
21300;BME280;10809;49.476;11.016;2023-05-25T00:31:21;98756.06;;;12.80;40.89
21300;BME280;10809;49.476;11.016;2023-05-25T00:33:52;98768.59;;;12.78;41.06
21300;BME280;10809;49.476;11.016;2023-05-25T00:36:23;98762.59;;;12.74;41.15
21300;BME280;10809;49.476;11.016;2023-05-25T00:38:54;98767.13;;;12.72;41.05
21300;BME280;10809;49.476;11.016;2023-05-25T00:41:25;98762.06;;;12.68;41.25
21300;BME280;10809;49.476;11.016;2023-05-25T00:43:56;98755.13;;;12.65;41.07
21300;BME280;10809;49.476;11.016;2023-05-25T00:46:30;98759.75;;;12.62;41.18
21300;BME280;10809;49.476;11.016;2023-05-25T00:49:06;98755.50;;;12.59;41.39
21300;BME280;10809;49.476;11.016;2023-05-25T00:51:37;98759.28;;;12.55;41.29
21300;BME280;10809;49.476;11.016;2023-05-25T00:54:10;98753.19;;;12.53;41.35
21300;BME280;10809;49.476;11.016;2023-05-25T00:56:52;98756.88;;;12.51;41.37
21300;BME280;10809;49.476;11.016;2023-05-25T00:59:51;98758.75;;;12.49;41.34
21300;BME280;10809;49.476;11.016;2023-05-25T01:02:27;98762.44;;;12.46;41.46
21300;BME280;10809;49.476;11.016;2023-05-25T01:05:05;98761.66;;;12.44;41.51
21300;BME280;10809;49.476;11.016;2023-05-25T01:07:36;98761.75;;;12.43;41.51
21300;BME280;10809;49.476;11.016;2023-05-25T01:10:09;98759.09;;;12.43;41.56
21300;BME280;10809;49.476;11.016;2023-05-25T01:12:41;98763.63;;;12.41;41.61
21300;BME280;10809;49.476;11.016;2023-05-25T01:15:14;98753.88;;;12.41;41.55
21300;BME280;10809;49.476;11.016;2023-05-25T01:17:44;98758.41;;;12.39;41.55
21300;BME280;10809;49.476;11.016;2023-05-25T01:20:15;98754.09;;;12.37;41.74
21300;BME280;10809;49.476;11.016;2023-05-25T01:22:53;98763.06;;;12.34;41.59
21300;BME280;10809;49.476;11.016;2023-05-25T01:25:45;98757.09;;;12.31;41.75
21300;BME280;10809;49.476;11.016;2023-05-25T01:28:21;98757.25;;;12.28;41.67
21300;BME280;10809;49.476;11.016;2023-05-25T01:30:55;98758.34;;;12.24;41.80
21300;BME280;10809;49.476;11.016;2023-05-25T01:33:26;98755.13;;;12.19;41.73
21300;BME280;10809;49.476;11.016;2023-05-25T01:35:58;98755.28;;;12.16;41.86
21300;BME280;10809;49.476;11.016;2023-05-25T01:38:29;98759.03;;;12.12;41.72
21300;BME280;10809;49.476;11.016;2023-05-25T01:41:08;98761.00;;;12.08;41.85
21300;BME280;10809;49.476;11.016;2023-05-25T01:43:38;98761.25;;;12.04;42.10
21300;BME280;10809;49.476;11.016;2023-05-25T01:52:02;98763.53;;;11.94;42.10
21300;BME280;10809;49.476;11.016;2023-05-25T01:54:37;98770.72;;;11.92;42.08
21300;BME280;10809;49.476;11.016;2023-05-25T01:57:12;98768.22;;;11.89;42.23
21300;BME280;10809;49.476;11.016;2023-05-25T01:59:46;98762.22;;;11.86;42.24
21300;BME280;10809;49.476;11.016;2023-05-25T02:02:18;98766.78;;;11.84;42.10
21300;BME280;10809;49.476;11.016;2023-05-25T02:04:49;98766.06;;;11.80;42.21
21300;BME280;10809;49.476;11.016;2023-05-25T02:07:22;98768.81;;;11.79;42.32
21300;BME280;10809;49.476;11.016;2023-05-25T02:09:58;98771.63;;;11.76;42.23
21300;BME280;10809;49.476;11.016;2023-05-25T02:12:30;98769.91;;;11.75;42.46
21300;BME280;10809;49.476;11.016;2023-05-25T02:15:11;98770.06;;;11.72;42.35
21300;BME280;10809;49.476;11.016;2023-05-25T02:17:42;98765.78;;;11.69;42.48
21300;BME280;10809;49.476;11.016;2023-05-25T02:20:12;98770.31;;;11.67;42.66
21300;BME280;10809;49.476;11.016;2023-05-25T02:22:46;98762.53;;;11.64;42.47
21300;BME280;10809;49.476;11.016;2023-05-25T02:25:16;98762.59;;;11.63;42.68
21300;BME280;10809;49.476;11.016;2023-05-25T02:27:47;98765.34;;;11.61;42.64
21300;BME280;10809;49.476;11.016;2023-05-25T02:30:24;98764.63;;;11.58;42.69
21300;BME280;10809;49.476;11.016;2023-05-25T02:33:03;98765.66;;;11.55;42.71
21300;BME280;10809;49.476;11.016;2023-05-25T02:35:34;98761.34;;;11.53;42.45
21300;BME280;10809;49.476;11.016;2023-05-25T02:38:04;98767.69;;;11.50;42.58
21300;BME280;10809;49.476;11.016;2023-05-25T02:40:35;98768.72;;;11.48;42.66
21300;BME280;10809;49.476;11.016;2023-05-25T02:43:06;98774.19;;;11.45;42.88
21300;BME280;10809;49.476;11.016;2023-05-25T02:45:39;98768.09;;;11.43;42.76
21300;BME280;10809;49.476;11.016;2023-05-25T02:48:11;98773.47;;;11.41;43.00
21300;BME280;10809;49.476;11.016;2023-05-25T02:50:41;98765.66;;;11.38;42.92
21300;BME280;10809;49.476;11.016;2023-05-25T02:53:16;98784.31;;;11.37;43.08
21300;BME280;10809;49.476;11.016;2023-05-25T02:55:46;98770.34;;;11.33;43.01
21300;BME280;10809;49.476;11.016;2023-05-25T02:58:25;98770.41;;;11.32;43.05
21300;BME280;10809;49.476;11.016;2023-05-25T03:01:12;98773.22;;;11.28;43.02
21300;BME280;10809;49.476;11.016;2023-05-25T03:03:48;98768.00;;;11.27;43.05
21300;BME280;10809;49.476;11.016;2023-05-25T03:06:24;98767.28;;;11.23;43.03
21300;BME280;10809;49.476;11.016;2023-05-25T03:09:15;98776.22;;;11.21;42.84
21300;BME280;10809;49.476;11.016;2023-05-25T03:11:46;98764.91;;;11.17;43.21
21300;BME280;10809;49.476;11.016;2023-05-25T03:14:19;98772.94;;;11.16;43.26
21300;BME280;10809;49.476;11.016;2023-05-25T03:17:05;98777.50;;;11.14;43.39
21300;BME280;10809;49.476;11.016;2023-05-25T03:19:36;98777.66;;;11.11;43.25
21300;BME280;10809;49.476;11.016;2023-05-25T03:22:06;98772.50;;;11.08;43.49
21300;BME280;10809;49.476;11.016;2023-05-25T03:24:38;98781.38;;;11.07;43.26
21300;BME280;10809;49.476;11.016;2023-05-25T03:27:12;98777.97;;;11.05;43.18
21300;BME280;10809;49.476;11.016;2023-05-25T03:29:48;98785.13;;;11.03;43.58
21300;BME280;10809;49.476;11.016;2023-05-25T03:32:19;98786.13;;;11.00;43.57
21300;BME280;10809;49.476;11.016;2023-05-25T03:34:50;98793.28;;;10.98;43.41
21300;BME280;10809;49.476;11.016;2023-05-25T03:37:21;98795.16;;;10.96;43.68
21300;BME280;10809;49.476;11.016;2023-05-25T03:39:52;98804.03;;;10.95;43.62
21300;BME280;10809;49.476;11.016;2023-05-25T03:42:22;98802.41;;;10.93;43.78
21300;BME280;10809;49.476;11.016;2023-05-25T03:44:53;98809.56;;;10.91;43.63
21300;BME280;10809;49.476;11.016;2023-05-25T03:47:23;98821.03;;;10.91;43.57
21300;BME280;10809;49.476;11.016;2023-05-25T03:49:54;98824.59;;;10.90;43.58
21300;BME280;10809;49.476;11.016;2023-05-25T03:52:24;98826.47;;;10.88;43.88
21300;BME280;10809;49.476;11.016;2023-05-25T03:54:55;98831.78;;;10.88;43.92
21300;BME280;10809;49.476;11.016;2023-05-25T03:57:27;98827.41;;;10.87;43.65
21300;BME280;10809;49.476;11.016;2023-05-25T03:59:57;98827.41;;;10.87;43.96
21300;BME280;10809;49.476;11.016;2023-05-25T04:02:28;98822.09;;;10.87;44.11
21300;BME280;10809;49.476;11.016;2023-05-25T04:04:59;98827.41;;;10.87;43.86
21300;BME280;10809;49.476;11.016;2023-05-25T04:07:33;98823.84;;;10.88;43.92
21300;BME280;10809;49.476;11.016;2023-05-25T04:10:09;98826.47;;;10.88;44.03
21300;BME280;10809;49.476;11.016;2023-05-25T04:12:49;98822.88;;;10.89;43.95
21300;BME280;10809;49.476;11.016;2023-05-25T04:15:21;98822.88;;;10.89;43.91
21300;BME280;10809;49.476;11.016;2023-05-25T04:18:05;98827.25;;;10.90;44.00
21300;BME280;10809;49.476;11.016;2023-05-25T04:20:35;98831.63;;;10.91;44.25
21300;BME280;10809;49.476;11.016;2023-05-25T04:23:06;98828.13;;;10.91;44.27
21300;BME280;10809;49.476;11.016;2023-05-25T04:25:37;98821.03;;;10.91;44.34
21300;BME280;10809;49.476;11.016;2023-05-25T04:28:12;98828.97;;;10.91;44.11
21300;BME280;10809;49.476;11.016;2023-05-25T04:30:56;98836.84;;;10.93;43.97
21300;BME280;10809;49.476;11.016;2023-05-25T04:33:52;98833.25;;;10.94;44.09
21300;BME280;10809;49.476;11.016;2023-05-25T04:36:43;98835.84;;;10.95;44.33
21300;BME280;10809;49.476;11.016;2023-05-25T04:39:19;98834.91;;;10.96;44.27
21300;BME280;10809;49.476;11.016;2023-05-25T04:41:55;98839.28;;;10.97;44.19
21300;BME280;10809;49.476;11.016;2023-05-25T04:44:27;98845.34;;;10.99;44.27
21300;BME280;10809;49.476;11.016;2023-05-25T04:47:02;98844.44;;;11.00;44.34
21300;BME280;10809;49.476;11.016;2023-05-25T04:49:38;98842.53;;;11.02;44.48
21300;BME280;10809;49.476;11.016;2023-05-25T04:52:18;98850.41;;;11.04;44.57
21300;BME280;10809;49.476;11.016;2023-05-25T04:54:49;98853.00;;;11.05;44.29
21300;BME280;10809;49.476;11.016;2023-05-25T04:57:20;98845.91;;;11.06;44.67
21300;BME280;10809;49.476;11.016;2023-05-25T04:59:56;98852.00;;;11.08;44.54
21300;BME280;10809;49.476;11.016;2023-05-25T05:02:26;98849.28;;;11.09;44.57
21300;BME280;10809;49.476;11.016;2023-05-25T05:04:57;98862.47;;;11.11;44.46
21300;BME280;10809;49.476;11.016;2023-05-25T05:07:28;98867.69;;;11.12;44.53
21300;BME280;10809;49.476;11.016;2023-05-25T05:09:58;98859.72;;;11.12;44.54
21300;BME280;10809;49.476;11.016;2023-05-25T05:12:33;98863.28;;;11.11;44.66
21300;BME280;10809;49.476;11.016;2023-05-25T05:15:07;98865.88;;;11.13;44.66
21300;BME280;10809;49.476;11.016;2023-05-25T05:17:38;98870.25;;;11.14;44.48
21300;BME280;10809;49.476;11.016;2023-05-25T05:20:08;98870.19;;;11.15;44.67
21300;BME280;10809;49.476;11.016;2023-05-25T05:22:39;98875.34;;;11.18;44.22
21300;BME280;10809;49.476;11.016;2023-05-25T05:25:20;98866.44;;;11.19;44.62
21300;BME280;10809;49.476;11.016;2023-05-25T05:27:51;98874.31;;;11.21;44.50
21300;BME280;10809;49.476;11.016;2023-05-25T05:30:27;98883.06;;;11.23;44.50
21300;BME280;10809;49.476;11.016;2023-05-25T05:33:18;98875.00;;;11.26;44.91
21300;BME280;10809;49.476;11.016;2023-05-25T05:35:50;98879.28;;;11.28;44.88
21300;BME280;10809;49.476;11.016;2023-05-25T05:38:24;98866.88;;;11.29;44.58
21300;BME280;10809;49.476;11.016;2023-05-25T05:40:55;98872.09;;;11.31;45.11
21300;BME280;10809;49.476;11.016;2023-05-25T05:43:45;98873.03;;;11.29;44.64
21300;BME280;10809;49.476;11.016;2023-05-25T05:46:16;98879.13;;;11.32;44.88
21300;BME280;10809;49.476;11.016;2023-05-25T05:48:47;98871.97;;;11.34;44.89
21300;BME280;10809;49.476;11.016;2023-05-25T05:51:24;98879.75;;;11.37;45.06
21300;BME280;10809;49.476;11.016;2023-05-25T05:53:55;98885.78;;;11.40;45.08
21300;BME280;10809;49.476;11.016;2023-05-25T05:56:25;98885.47;;;11.46;45.38
21300;BME280;10809;49.476;11.016;2023-05-25T05:58:57;98879.00;;;11.52;45.33
21300;BME280;10809;49.476;11.016;2023-05-25T06:01:28;98885.69;;;11.59;45.27
21300;BME280;10809;49.476;11.016;2023-05-25T06:04:01;98882.72;;;11.65;45.13
21300;BME280;10809;49.476;11.016;2023-05-25T06:06:35;98878.06;;;11.70;45.43
21300;BME280;10809;49.476;11.016;2023-05-25T06:09:10;98879.44;;;11.77;45.53
21300;BME280;10809;49.476;11.016;2023-05-25T06:11:40;98878.97;;;11.86;45.78
21300;BME280;10809;49.476;11.016;2023-05-25T06:14:12;98870.91;;;12.04;46.22
21300;BME280;10809;49.476;11.016;2023-05-25T06:16:43;98867.50;;;12.35;46.80
21300;BME280;10809;49.476;11.016;2023-05-25T06:19:22;98863.56;;;12.74;46.75
21300;BME280;10809;49.476;11.016;2023-05-25T06:21:53;98872.56;;;13.19;46.99
21300;BME280;10809;49.476;11.016;2023-05-25T06:24:24;98862.78;;;13.64;46.81
21300;BME280;10809;49.476;11.016;2023-05-25T06:26:55;98864.53;;;14.09;46.63
21300;BME280;10809;49.476;11.016;2023-05-25T06:29:25;98862.00;;;14.49;45.94
21300;BME280;10809;49.476;11.016;2023-05-25T06:31:56;98869.75;;;14.81;45.26
21300;BME280;10809;49.476;11.016;2023-05-25T06:34:27;98870.66;;;15.08;44.64
21300;BME280;10809;49.476;11.016;2023-05-25T06:36:57;98868.31;;;15.30;44.31
21300;BME280;10809;49.476;11.016;2023-05-25T06:39:28;98878.56;;;15.50;44.19
21300;BME280;10809;49.476;11.016;2023-05-25T06:41:58;98871.00;;;15.69;44.11
21300;BME280;10809;49.476;11.016;2023-05-25T06:44:35;98859.19;;;15.85;43.96
21300;BME280;10809;49.476;11.016;2023-05-25T06:47:09;98855.41;;;16.02;43.91
21300;BME280;10809;49.476;11.016;2023-05-25T06:49:39;98853.47;;;16.16;43.41
21300;BME280;10809;49.476;11.016;2023-05-25T06:52:13;98862.13;;;16.32;43.42
21300;BME280;10809;49.476;11.016;2023-05-25T06:54:43;98856.69;;;16.47;42.85
21300;BME280;10809;49.476;11.016;2023-05-25T06:57:14;98853.47;;;16.54;42.43
21300;BME280;10809;49.476;11.016;2023-05-25T06:59:50;98863.13;;;16.57;42.52
21300;BME280;10809;49.476;11.016;2023-05-25T07:02:21;98861.16;;;16.59;42.29
21300;BME280;10809;49.476;11.016;2023-05-25T07:04:54;98854.88;;;16.60;42.01
21300;BME280;10809;49.476;11.016;2023-05-25T07:07:25;98852.09;;;16.61;42.38
21300;BME280;10809;49.476;11.016;2023-05-25T07:09:55;98861.59;;;16.65;42.61
21300;BME280;10809;49.476;11.016;2023-05-25T07:12:26;98854.09;;;16.70;42.63
21300;BME280;10809;49.476;11.016;2023-05-25T07:14:57;98849.16;;;16.77;42.51
21300;BME280;10809;49.476;11.016;2023-05-25T07:17:27;98852.13;;;16.85;42.59
21300;BME280;10809;49.476;11.016;2023-05-25T07:19:58;98842.69;;;16.92;42.54
21300;BME280;10809;49.476;11.016;2023-05-25T07:22:28;98845.66;;;17.00;42.43
21300;BME280;10809;49.476;11.016;2023-05-25T07:25:05;98849.50;;;17.08;42.35
21300;BME280;10809;49.476;11.016;2023-05-25T07:27:48;98844.56;;;17.15;42.23
21300;BME280;10809;49.476;11.016;2023-05-25T07:30:19;98838.78;;;17.21;42.25
21300;BME280;10809;49.476;11.016;2023-05-25T07:32:50;98839.19;;;17.27;41.94
21300;BME280;10809;49.476;11.016;2023-05-25T07:35:20;98846.88;;;17.32;41.68
21300;BME280;10809;49.476;11.016;2023-05-25T07:38:01;98851.25;;;17.33;41.63
21300;BME280;10809;49.476;11.016;2023-05-25T07:40:36;98850.53;;;17.31;41.16
21300;BME280;10809;49.476;11.016;2023-05-25T07:43:07;98854.25;;;17.28;41.18
21300;BME280;10809;49.476;11.016;2023-05-25T07:45:41;98852.66;;;17.26;41.29
21300;BME280;10809;49.476;11.016;2023-05-25T07:48:11;98851.69;;;17.27;41.33
21300;BME280;10809;49.476;11.016;2023-05-25T07:50:42;98857.03;;;17.27;41.23
21300;BME280;10809;49.476;11.016;2023-05-25T07:53:12;98860.47;;;17.29;41.31
21300;BME280;10809;49.476;11.016;2023-05-25T07:55:43;98861.94;;;17.33;41.30
21300;BME280;10809;49.476;11.016;2023-05-25T07:58:13;98853.69;;;17.36;41.52
21300;BME280;10809;49.476;11.016;2023-05-25T08:00:44;98854.22;;;17.41;41.46
21300;BME280;10809;49.476;11.016;2023-05-25T08:03:14;98859.34;;;17.44;41.09
21300;BME280;10809;49.476;11.016;2023-05-25T08:05:45;98857.41;;;17.46;41.31
21300;BME280;10809;49.476;11.016;2023-05-25T08:08:17;98857.78;;;17.52;41.61
21300;BME280;10809;49.476;11.016;2023-05-25T08:10:48;98864.28;;;17.61;41.60
21300;BME280;10809;49.476;11.016;2023-05-25T08:13:19;98853.63;;;17.72;41.32
21300;BME280;10809;49.476;11.016;2023-05-25T08:15:49;98857.19;;;17.83;41.38
21300;BME280;10809;49.476;11.016;2023-05-25T08:18:20;98853.59;;;17.95;41.76
21300;BME280;10809;49.476;11.016;2023-05-25T08:20:50;98854.97;;;18.12;41.55
21300;BME280;10809;49.476;11.016;2023-05-25T08:23:21;98849.91;;;18.31;41.44
21300;BME280;10809;49.476;11.016;2023-05-25T08:25:51;98849.16;;;18.51;41.49
21300;BME280;10809;49.476;11.016;2023-05-25T08:28:22;98850.28;;;18.71;41.39
21300;BME280;10809;49.476;11.016;2023-05-25T08:30:53;98842.47;;;18.90;41.11
21300;BME280;10809;49.476;11.016;2023-05-25T08:33:23;98846.59;;;19.05;40.73
21300;BME280;10809;49.476;11.016;2023-05-25T08:35:53;98847.34;;;19.18;40.57
21300;BME280;10809;49.476;11.016;2023-05-25T08:38:24;98848.75;;;19.33;40.88
21300;BME280;10809;49.476;11.016;2023-05-25T08:41:07;98839.06;;;19.52;40.70
21300;BME280;10809;49.476;11.016;2023-05-25T08:43:38;98839.34;;;19.70;40.56
21300;BME280;10809;49.476;11.016;2023-05-25T08:46:08;98838.31;;;19.82;39.58
21300;BME280;10809;49.476;11.016;2023-05-25T08:48:39;98833.28;;;19.89;39.49
21300;BME280;10809;49.476;11.016;2023-05-25T08:51:12;98838.25;;;19.93;39.48
21300;BME280;10809;49.476;11.016;2023-05-25T08:53:43;98838.13;;;19.95;39.27
21300;BME280;10809;49.476;11.016;2023-05-25T08:56:25;98845.19;;;19.96;39.26
21300;BME280;10809;49.476;11.016;2023-05-25T08:59:05;98841.94;;;19.92;38.99
21300;BME280;10809;49.476;11.016;2023-05-25T09:01:42;98837.78;;;19.88;38.76
21300;BME280;10809;49.476;11.016;2023-05-25T09:04:16;98838.31;;;19.82;38.75
21300;BME280;10809;49.476;11.016;2023-05-25T09:06:51;98847.88;;;19.75;38.60
21300;BME280;10809;49.476;11.016;2023-05-25T09:09:22;98843.88;;;19.69;38.48
21300;BME280;10809;49.476;11.016;2023-05-25T09:11:53;98846.97;;;19.65;38.55
21300;BME280;10809;49.476;11.016;2023-05-25T09:14:24;98848.19;;;19.61;38.71
21300;BME280;10809;49.476;11.016;2023-05-25T09:16:57;98849.03;;;19.61;38.81
21300;BME280;10809;49.476;11.016;2023-05-25T09:19:28;98845.97;;;19.66;39.07
21300;BME280;10809;49.476;11.016;2023-05-25T09:21:59;98849.97;;;19.71;38.88
21300;BME280;10809;49.476;11.016;2023-05-25T09:24:33;98845.47;;;19.72;38.80
21300;BME280;10809;49.476;11.016;2023-05-25T09:27:11;98839.09;;;19.73;38.81
21300;BME280;10809;49.476;11.016;2023-05-25T09:29:49;98833.44;;;19.76;38.34
21300;BME280;10809;49.476;11.016;2023-05-25T09:32:19;98846.19;;;19.74;38.12
21300;BME280;10809;49.476;11.016;2023-05-25T09:34:53;98849.13;;;19.71;38.14
21300;BME280;10809;49.476;11.016;2023-05-25T09:37:29;98845.09;;;19.65;38.18
21300;BME280;10809;49.476;11.016;2023-05-25T09:40:00;98847.91;;;19.64;38.61
21300;BME280;10809;49.476;11.016;2023-05-25T09:42:34;98845.09;;;19.65;38.84
21300;BME280;10809;49.476;11.016;2023-05-25T09:45:05;98837.53;;;19.70;38.91
21300;BME280;10809;49.476;11.016;2023-05-25T09:47:45;98844.19;;;19.76;39.23
21300;BME280;10809;49.476;11.016;2023-05-25T09:50:15;98837.34;;;19.83;38.93
21300;BME280;10809;49.476;11.016;2023-05-25T09:52:50;98849.13;;;19.92;39.05
21300;BME280;10809;49.476;11.016;2023-05-25T09:55:21;98838.72;;;19.98;38.77
21300;BME280;10809;49.476;11.016;2023-05-25T09:57:53;98836.34;;;20.05;38.43
21300;BME280;10809;49.476;11.016;2023-05-25T10:00:24;98841.31;;;20.09;38.34
21300;BME280;10809;49.476;11.016;2023-05-25T10:02:55;98840.22;;;20.12;38.48
21300;BME280;10809;49.476;11.016;2023-05-25T10:05:25;98839.09;;;20.14;38.23
21300;BME280;10809;49.476;11.016;2023-05-25T10:07:56;98838.00;;;20.17;37.96
21300;BME280;10809;49.476;11.016;2023-05-25T10:10:27;98839.97;;;20.15;37.74
21300;BME280;10809;49.476;11.016;2023-05-25T10:12:58;98839.38;;;20.11;38.13
21300;BME280;10809;49.476;11.016;2023-05-25T10:15:30;98840.22;;;20.12;38.36
21300;BME280;10809;49.476;11.016;2023-05-25T10:18:01;98842.78;;;20.13;38.26
21300;BME280;10809;49.476;11.016;2023-05-25T10:20:32;98847.78;;;20.18;38.39
21300;BME280;10809;49.476;11.016;2023-05-25T10:23:12;98836.63;;;20.22;38.28
21300;BME280;10809;49.476;11.016;2023-05-25T10:25:52;98839.81;;;20.27;38.47
21300;BME280;10809;49.476;11.016;2023-05-25T10:28:29;98835.84;;;20.31;38.15
21300;BME280;10809;49.476;11.016;2023-05-25T10:31:04;98840.81;;;20.36;38.21
21300;BME280;10809;49.476;11.016;2023-05-25T10:33:36;98840.56;;;20.39;37.97
21300;BME280;10809;49.476;11.016;2023-05-25T10:36:08;98839.44;;;20.41;38.18
21300;BME280;10809;49.476;11.016;2023-05-25T10:38:39;98845.41;;;20.45;38.00
21300;BME280;10809;49.476;11.016;2023-05-25T10:41:19;98830.56;;;20.50;38.28
21300;BME280;10809;49.476;11.016;2023-05-25T10:43:53;98845.47;;;20.54;37.89
21300;BME280;10809;49.476;11.016;2023-05-25T10:46:24;98831.75;;;20.57;37.98
21300;BME280;10809;49.476;11.016;2023-05-25T10:48:55;98829.75;;;20.59;37.94
21300;BME280;10809;49.476;11.016;2023-05-25T10:51:38;98827.66;;;20.63;38.15
21300;BME280;10809;49.476;11.016;2023-05-25T10:54:12;98823.59;;;20.68;37.81
21300;BME280;10809;49.476;11.016;2023-05-25T10:57:09;98823.03;;;20.74;37.75
21300;BME280;10809;49.476;11.016;2023-05-25T10:59:40;98829.84;;;20.78;37.38
21300;BME280;10809;49.476;11.016;2023-05-25T11:02:14;98821.50;;;20.81;37.69
21300;BME280;10809;49.476;11.016;2023-05-25T11:04:46;98830.28;;;20.83;37.39
21300;BME280;10809;49.476;11.016;2023-05-25T11:07:20;98830.16;;;20.85;37.39
21300;BME280;10809;49.476;11.016;2023-05-25T11:09:56;98821.66;;;20.89;37.48
21300;BME280;10809;49.476;11.016;2023-05-25T11:12:30;98822.22;;;20.93;37.46
21300;BME280;10809;49.476;11.016;2023-05-25T11:15:21;98824.41;;;20.99;37.16
21300;BME280;10809;49.476;11.016;2023-05-25T11:17:59;98825.84;;;21.03;37.49
21300;BME280;10809;49.476;11.016;2023-05-25T11:20:33;98818.19;;;21.08;37.69
21300;BME280;10809;49.476;11.016;2023-05-25T11:23:22;98818.22;;;21.17;37.58
21300;BME280;10809;49.476;11.016;2023-05-25T11:26:03;98810.00;;;21.28;37.57
21300;BME280;10809;49.476;11.016;2023-05-25T11:28:46;98802.78;;;21.38;37.39
21300;BME280;10809;49.476;11.016;2023-05-25T11:31:33;98813.44;;;21.49;37.37
21300;BME280;10809;49.476;11.016;2023-05-25T11:34:11;98811.03;;;21.56;37.14
21300;BME280;10809;49.476;11.016;2023-05-25T11:36:42;98813.16;;;21.62;36.67
21300;BME280;10809;49.476;11.016;2023-05-25T11:39:12;98816.47;;;21.66;36.72
21300;BME280;10809;49.476;11.016;2023-05-25T11:42:18;98803.38;;;21.71;36.67
21300;BME280;10809;49.476;11.016;2023-05-25T11:44:49;98805.50;;;21.77;36.31
21300;BME280;10809;49.476;11.016;2023-05-25T11:47:21;98809.63;;;21.81;36.69
21300;BME280;10809;49.476;11.016;2023-05-25T11:49:54;98804.66;;;21.86;36.86
21300;BME280;10809;49.476;11.016;2023-05-25T11:52:26;98796.84;;;21.92;36.58
21300;BME280;10809;49.476;11.016;2023-05-25T11:54:57;98798.81;;;22.00;36.27
21300;BME280;10809;49.476;11.016;2023-05-25T11:57:43;98798.94;;;22.08;36.59
21300;BME280;10809;49.476;11.016;2023-05-25T12:00:23;98799.19;;;22.14;36.15
21300;BME280;10809;49.476;11.016;2023-05-25T12:02:54;98807.56;;;22.21;36.22
21300;BME280;10809;49.476;11.016;2023-05-25T12:05:25;98799.88;;;22.26;35.96
21300;BME280;10809;49.476;11.016;2023-05-25T12:08:05;98799.59;;;22.29;35.77
21300;BME280;10809;49.476;11.016;2023-05-25T12:10:48;98796.50;;;22.33;36.14
21300;BME280;10809;49.476;11.016;2023-05-25T12:13:19;98791.66;;;22.37;35.71
21300;BME280;10809;49.476;11.016;2023-05-25T12:15:50;98799.31;;;22.41;35.37
21300;BME280;10809;49.476;11.016;2023-05-25T12:18:27;98791.06;;;22.43;35.71
21300;BME280;10809;49.476;11.016;2023-05-25T12:21:04;98789.06;;;22.45;35.45
21300;BME280;10809;49.476;11.016;2023-05-25T12:23:40;98781.53;;;22.48;35.12
21300;BME280;10809;49.476;11.016;2023-05-25T12:26:12;98779.53;;;22.50;35.12
21300;BME280;10809;49.476;11.016;2023-05-25T12:29:11;98771.97;;;22.54;35.53
21300;BME280;10809;49.476;11.016;2023-05-25T12:31:44;98771.38;;;22.60;35.39
21300;BME280;10809;49.476;11.016;2023-05-25T12:34:16;98768.06;;;22.66;35.77
21300;BME280;10809;49.476;11.016;2023-05-25T12:36:51;98774.28;;;22.76;35.53
21300;BME280;10809;49.476;11.016;2023-05-25T12:42:00;98762.38;;;22.96;35.16
21300;BME280;10809;49.476;11.016;2023-05-25T12:44:38;98758.94;;;23.03;35.07
21300;BME280;10809;49.476;11.016;2023-05-25T12:47:22;98757.19;;;23.12;35.17
21300;BME280;10809;49.476;11.016;2023-05-25T12:50:09;98756.25;;;23.21;35.33
21300;BME280;10809;49.476;11.016;2023-05-25T12:52:46;98757.50;;;23.27;35.09
21300;BME280;10809;49.476;11.016;2023-05-25T12:55:29;98755.03;;;23.33;35.32
21300;BME280;10809;49.476;11.016;2023-05-25T12:58:03;98747.00;;;23.41;35.08
21300;BME280;10809;49.476;11.016;2023-05-25T13:00:43;98746.06;;;23.50;34.66
21300;BME280;10809;49.476;11.016;2023-05-25T13:03:16;98748.84;;;23.58;34.84
21300;BME280;10809;49.476;11.016;2023-05-25T13:05:50;98749.94;;;23.65;34.41
21300;BME280;10809;49.476;11.016;2023-05-25T13:08:20;98747.31;;;23.73;34.36
21300;BME280;10809;49.476;11.016;2023-05-25T13:10:51;98741.97;;;23.81;34.37
21300;BME280;10809;49.476;11.016;2023-05-25T13:13:22;98734.06;;;23.88;34.38
21300;BME280;10809;49.476;11.016;2023-05-25T13:15:52;98742.22;;;23.96;34.39
21300;BME280;10809;49.476;11.016;2023-05-25T13:18:22;98737.88;;;24.03;34.60
21300;BME280;10809;49.476;11.016;2023-05-25T13:20:53;98728.94;;;24.10;34.23
21300;BME280;10809;49.476;11.016;2023-05-25T13:23:24;98730.19;;;24.16;33.95
21300;BME280;10809;49.476;11.016;2023-05-25T13:25:54;98738.16;;;24.17;33.73
21300;BME280;10809;49.476;11.016;2023-05-25T13:28:24;98734.44;;;24.18;33.63
21300;BME280;10809;49.476;11.016;2023-05-25T13:30:58;98732.41;;;24.20;33.51
21300;BME280;10809;49.476;11.016;2023-05-25T13:33:29;98730.41;;;24.22;33.76